Hovedside
METAR-TAF:

METAR-TAF

Lufthavner :

Rundu, Namibia

breddegrad: 17-57-20S, lengdegrad: 019-43-25E, høyde over havet: 1106 m

Gjeldene værobservasjon

Denne rapporten ble laget for 7 timer og 42 minutter siden, klokken 13:00 UTC
Vind 5 kt fra Vest
Temperatur
Trykk 1019 hPa
Sikt 10 km eller mer
ingen skyer under 1500 m og ingen bygeskyer

METAR: FYRU 211300Z 27005KT CAVOK ///// Q1019

Tid: 22:42 (20:42 UTC)

Varsel

Denne rapporten ble laget for 42 minutter siden, klokken 20:00 UTC
Varsel gyldig fra 21. klokken 21 UTC til 22. klokken 06 UTC
Vind 4 kt fra Sør-sørøst
Sikt 10 km eller mer
ingen skyer under 1500 m og ingen bygeskyer

TAF: FYRU 212000Z 2121/2206 15004KT CAVOK

Værobservasjoner og værvarsel for over 4000 flyplasser (METAR- og TAF-rapporter).

Tilgjengelige stasjoner er representert av de røde og gule prikkene på kartet.

Hold musepekeren over prikken for å se navnet på stasjonen.

Klikk så for å se værobservasjoner og -varsler.

For å forandre kartet kan du klikke på den grønne knappen med svart kryss for å zoome inn, på den grønne knappen med strek for å zoome ut, eller på de grønne pilene for å se tilstøtende kart.


METAR-TAF: